createdAt,value
2018-06-07T00:01:58.087Z,24.60
2018-06-07T00:04:26.520Z,24.40
2018-06-07T00:06:54.905Z,24.40
2018-06-07T00:09:23.314Z,24.30
2018-06-07T00:11:51.838Z,24.30
2018-06-07T00:14:20.254Z,24.30
2018-06-07T00:16:48.645Z,24.30
2018-06-07T00:19:17.182Z,24.20
2018-06-07T00:21:45.554Z,24.20
2018-06-07T00:24:13.941Z,24.20
2018-06-07T00:26:42.358Z,24.20
2018-06-07T00:29:10.765Z,24.10
2018-06-07T00:31:39.172Z,24.10
2018-06-07T00:34:07.563Z,24.20
2018-06-07T00:36:36.112Z,24.30
2018-06-07T00:39:06.911Z,24.20
2018-06-07T00:41:35.335Z,24.10
2018-06-07T00:44:03.807Z,24.10
2018-06-07T00:46:32.215Z,24.00
2018-06-07T00:49:00.627Z,24.10
2018-06-07T00:51:29.047Z,24.00
2018-06-07T00:53:57.469Z,24.00
2018-06-07T00:56:36.951Z,23.90
2018-06-07T00:59:05.413Z,23.90
2018-06-07T01:01:33.849Z,24.00
2018-06-07T01:04:02.327Z,23.90
2018-06-07T01:06:30.763Z,23.90
2018-06-07T01:08:59.145Z,24.00
2018-06-07T01:11:27.562Z,24.00
2018-06-07T01:13:55.946Z,23.90
2018-06-07T01:16:24.339Z,23.90
2018-06-07T01:18:52.785Z,23.80
2018-06-07T01:21:21.222Z,23.70
2018-06-07T01:23:49.784Z,23.70
2018-06-07T01:26:18.191Z,23.70
2018-06-07T01:28:46.581Z,23.70
2018-06-07T01:31:20.463Z,23.70
2018-06-07T01:33:49.312Z,23.70
2018-06-07T01:36:18.464Z,23.80
2018-06-07T01:38:58.226Z,23.70
2018-06-07T01:41:26.570Z,23.70
2018-06-07T01:43:54.958Z,23.60
2018-06-07T01:46:23.297Z,23.60
2018-06-07T01:48:51.664Z,23.60
2018-06-07T01:51:19.994Z,23.50
2018-06-07T01:53:48.397Z,23.50
2018-06-07T01:56:17.022Z,23.50
2018-06-07T01:58:45.385Z,23.50
2018-06-07T02:01:13.745Z,23.60
2018-06-07T02:03:42.113Z,23.70
2018-06-07T02:06:10.448Z,23.70
2018-06-07T02:08:38.813Z,23.60
2018-06-07T02:11:07.210Z,23.60
2018-06-07T02:13:35.706Z,23.60
2018-06-07T02:16:04.133Z,23.60
2018-06-07T02:18:32.545Z,23.30
2018-06-07T02:21:00.928Z,23.20
2018-06-07T02:23:29.328Z,23.10
2018-06-07T02:25:57.697Z,23.10
2018-06-07T02:28:26.093Z,23.30
2018-06-07T02:30:54.433Z,23.40
2018-06-07T02:33:22.853Z,23.20
2018-06-07T02:35:51.230Z,23.10
2018-06-07T02:38:19.622Z,23.00
2018-06-07T02:40:48.003Z,23.00
2018-06-07T02:43:16.377Z,23.00
2018-06-07T02:45:44.773Z,23.10
2018-06-07T02:48:13.138Z,23.30
2018-06-07T02:50:41.530Z,23.10
2018-06-07T02:53:09.899Z,23.00
2018-06-07T02:55:38.319Z,22.90
2018-06-07T02:58:06.655Z,22.80
2018-06-07T03:00:35.039Z,22.70
2018-06-07T03:03:03.429Z,22.80
2018-06-07T03:05:31.834Z,22.80
2018-06-07T03:08:00.185Z,22.90
2018-06-07T03:10:28.623Z,23.20
2018-06-07T03:12:56.974Z,23.30
2018-06-07T03:15:25.414Z,23.10
2018-06-07T03:17:53.773Z,23.00
2018-06-07T03:20:22.386Z,23.00
2018-06-07T03:22:50.755Z,22.70
2018-06-07T03:25:19.151Z,22.40
2018-06-07T03:27:47.529Z,22.20
2018-06-07T03:30:15.930Z,22.10
2018-06-07T03:32:44.330Z,22.00
2018-06-07T03:35:12.722Z,22.00
2018-06-07T03:37:41.100Z,22.00
2018-06-07T03:40:09.470Z,22.00
2018-06-07T03:42:37.873Z,22.00
2018-06-07T03:45:06.226Z,22.10
2018-06-07T03:47:34.627Z,22.10
2018-06-07T03:50:02.993Z,21.90
2018-06-07T03:52:31.387Z,22.00
2018-06-07T03:54:59.743Z,22.20
2018-06-07T03:59:56.219Z,21.90
2018-06-07T04:02:24.660Z,21.90
2018-06-07T04:04:52.990Z,21.70
2018-06-07T04:07:21.409Z,21.70
2018-06-07T04:09:49.769Z,21.30
2018-06-07T04:12:18.170Z,21.40
2018-06-07T04:14:46.512Z,21.70
2018-06-07T04:17:14.895Z,21.90
2018-06-07T04:19:43.234Z,21.90
2018-06-07T04:22:11.593Z,22.10
2018-06-07T04:24:39.934Z,22.20
2018-06-07T04:27:08.306Z,22.20
2018-06-07T04:29:36.633Z,22.30
2018-06-07T04:32:05.038Z,22.40
2018-06-07T04:34:33.334Z,22.40
2018-06-07T04:37:01.709Z,22.50
2018-06-07T04:39:30.042Z,22.50
2018-06-07T04:41:58.385Z,22.40
2018-06-07T04:44:26.745Z,22.20
2018-06-07T04:46:55.086Z,22.20
2018-06-07T04:49:23.469Z,22.20
2018-06-07T04:51:51.808Z,22.20
2018-06-07T04:54:20.193Z,22.10
2018-06-07T04:56:48.533Z,22.10
2018-06-07T04:59:16.912Z,22.30
2018-06-07T05:01:45.290Z,22.20
2018-06-07T05:04:13.658Z,22.20
2018-06-07T05:06:42.089Z,22.20
2018-06-07T05:09:10.434Z,22.40
2018-06-07T05:11:38.782Z,22.40
2018-06-07T05:14:07.162Z,22.20
2018-06-07T05:16:35.504Z,22.30
2018-06-07T05:19:03.873Z,22.10
2018-06-07T05:21:32.217Z,22.10
2018-06-07T05:24:00.577Z,22.10
2018-06-07T05:26:28.936Z,22.30
2018-06-07T05:28:57.294Z,22.40
2018-06-07T05:31:25.640Z,22.50
2018-06-07T05:33:54.066Z,22.60
2018-06-07T05:36:22.405Z,22.70
2018-06-07T05:38:50.809Z,22.90
2018-06-07T05:41:19.199Z,22.90
2018-06-07T05:43:47.565Z,22.80
2018-06-07T05:46:15.996Z,22.70
2018-06-07T05:48:44.317Z,22.60
2018-06-07T05:51:12.711Z,22.80
2018-06-07T05:53:41.036Z,23.10
2018-06-07T05:56:09.430Z,23.30
2018-06-07T05:58:37.785Z,23.30
2018-06-07T06:01:06.162Z,23.20
2018-06-07T06:03:34.520Z,23.20
2018-06-07T06:06:02.881Z,23.30
2018-06-07T06:08:31.214Z,23.50
2018-06-07T06:10:59.614Z,23.60
2018-06-07T06:13:27.941Z,23.60
2018-06-07T06:15:56.329Z,23.50
2018-06-07T06:18:24.671Z,23.60
2018-06-07T06:20:53.070Z,23.50
2018-06-07T06:23:21.428Z,23.60
2018-06-07T06:25:49.796Z,23.80
2018-06-07T06:28:18.141Z,24.00
2018-06-07T06:30:46.518Z,24.20
2018-06-07T06:33:14.842Z,24.30
2018-06-07T06:35:43.215Z,24.40
2018-06-07T06:38:46.321Z,24.40
2018-06-07T06:41:14.728Z,24.30
2018-06-07T06:43:43.076Z,24.30
2018-06-07T06:46:11.515Z,24.40
2018-06-07T06:48:39.878Z,24.50
2018-06-07T06:51:08.217Z,24.70
2018-06-07T06:53:36.603Z,24.70
2018-06-07T06:56:04.982Z,24.90
2018-06-07T06:58:33.356Z,24.90
2018-06-07T07:01:01.661Z,24.90
2018-06-07T07:03:30.091Z,24.80
2018-06-07T07:05:58.455Z,24.90
2018-06-07T07:08:26.835Z,25.00
2018-06-07T07:10:55.236Z,25.00
2018-06-07T07:13:23.638Z,25.10
2018-06-07T07:15:52.016Z,25.10
2018-06-07T07:18:20.417Z,25.10
2018-06-07T07:20:48.789Z,25.20
2018-06-07T07:23:17.200Z,25.30
2018-06-07T07:25:45.549Z,25.20
2018-06-07T07:28:13.946Z,25.20
2018-06-07T07:30:42.310Z,25.10
2018-06-07T07:33:10.707Z,25.20
2018-06-07T07:35:39.074Z,25.30
2018-06-07T07:38:07.477Z,25.50
2018-06-07T07:40:35.841Z,25.60
2018-06-07T07:43:04.245Z,25.60
2018-06-07T07:45:32.606Z,25.80
2018-06-07T07:48:00.958Z,26.10
2018-06-07T07:50:29.355Z,26.40
2018-06-07T07:52:57.712Z,26.60
2018-06-07T07:55:26.115Z,27.00
2018-06-07T07:57:54.547Z,27.30
2018-06-07T08:00:22.990Z,27.70
2018-06-07T08:02:51.332Z,28.30
2018-06-07T08:05:19.710Z,28.80
2018-06-07T08:07:48.056Z,29.40
2018-06-07T08:10:16.453Z,30.00
2018-06-07T08:12:44.834Z,30.40
2018-06-07T08:15:13.213Z,30.60
2018-06-07T08:17:41.546Z,30.40
2018-06-07T08:20:09.913Z,30.30
2018-06-07T08:22:38.242Z,30.20
2018-06-07T08:25:06.615Z,30.10
2018-06-07T08:27:34.978Z,30.00
2018-06-07T08:30:03.359Z,30.10
2018-06-07T08:32:31.681Z,30.20
2018-06-07T08:35:00.048Z,30.50
2018-06-07T08:37:28.418Z,30.80
2018-06-07T08:39:56.823Z,31.00
2018-06-07T08:42:25.153Z,31.30
2018-06-07T08:44:53.525Z,31.40
2018-06-07T08:47:21.854Z,31.60
2018-06-07T08:49:50.197Z,31.60
2018-06-07T08:52:18.578Z,31.40
2018-06-07T08:54:48.830Z,31.40
2018-06-07T08:57:17.986Z,31.40
2018-06-07T08:59:46.318Z,31.40
2018-06-07T09:02:14.677Z,31.40
2018-06-07T09:04:43.001Z,31.50
2018-06-07T09:07:11.366Z,32.00
2018-06-07T09:09:39.719Z,32.20
2018-06-07T09:12:08.154Z,32.70
2018-06-07T09:14:36.486Z,32.40
2018-06-07T09:17:04.859Z,32.60
2018-06-07T09:19:33.203Z,33.00
2018-06-07T09:22:01.579Z,33.30
2018-06-07T09:24:29.905Z,33.30
2018-06-07T09:26:58.281Z,33.40
2018-06-07T09:29:26.634Z,33.50
2018-06-07T09:31:55.007Z,33.80
2018-06-07T09:34:23.360Z,34.10
2018-06-07T09:36:51.719Z,34.30
2018-06-07T09:39:20.058Z,34.40
2018-06-07T09:41:48.435Z,34.60
2018-06-07T09:44:16.783Z,34.40
2018-06-07T09:46:45.150Z,34.10
2018-06-07T09:49:13.487Z,33.70
2018-06-07T09:51:41.830Z,33.10
2018-06-07T09:54:10.184Z,32.90
2018-06-07T09:56:38.512Z,32.80
2018-06-07T09:59:06.905Z,32.40
2018-06-07T10:01:35.242Z,32.20
2018-06-07T10:04:03.627Z,32.00
2018-06-07T10:06:31.958Z,31.80
2018-06-07T10:09:00.326Z,31.80
2018-06-07T10:11:28.677Z,31.60
2018-06-07T10:13:57.133Z,31.60
2018-06-07T10:16:25.488Z,31.20
2018-06-07T10:18:53.884Z,31.10
2018-06-07T10:21:22.251Z,30.80
2018-06-07T10:23:50.639Z,30.90
2018-06-07T10:26:18.997Z,30.80
2018-06-07T10:28:47.395Z,30.70
2018-06-07T10:31:15.754Z,30.50
2018-06-07T10:33:44.150Z,30.50
2018-06-07T10:36:12.498Z,30.50
2018-06-07T10:38:40.965Z,30.40
2018-06-07T10:41:09.319Z,30.40
2018-06-07T10:43:37.721Z,30.50
2018-06-07T10:46:06.088Z,30.40
2018-06-07T10:48:34.459Z,30.20
2018-06-07T10:51:02.854Z,30.30
2018-06-07T10:53:31.215Z,30.10
2018-06-07T10:55:59.613Z,30.10
2018-06-07T10:58:28.014Z,30.00
2018-06-07T11:00:56.403Z,29.90
2018-06-07T11:03:24.754Z,29.90
2018-06-07T11:05:53.150Z,29.80
2018-06-07T11:08:21.503Z,29.70
2018-06-07T11:10:49.899Z,29.40
2018-06-07T11:13:18.273Z,29.30
2018-06-07T11:15:46.663Z,29.40
2018-06-07T11:18:14.996Z,29.50
2018-06-07T11:20:43.361Z,29.50
2018-06-07T11:23:11.721Z,29.60
2018-06-07T11:25:40.090Z,29.60
2018-06-07T11:28:08.431Z,29.60
2018-06-07T11:30:36.810Z,29.60
2018-06-07T11:33:05.141Z,29.60
2018-06-07T11:35:33.510Z,29.60
2018-06-07T11:38:01.861Z,29.70
2018-06-07T11:40:30.243Z,29.70
2018-06-07T11:42:58.604Z,29.70
2018-06-07T11:45:26.973Z,29.50
2018-06-07T11:47:56.186Z,29.30
2018-06-07T11:50:24.525Z,29.10
2018-06-07T11:52:52.886Z,29.10
2018-06-07T11:55:21.241Z,29.20
2018-06-07T11:57:49.617Z,28.80
2018-06-07T12:00:17.957Z,28.90
2018-06-07T12:02:46.326Z,28.80
2018-06-07T12:05:14.683Z,28.80
2018-06-07T12:07:43.055Z,28.70
2018-06-07T12:10:11.377Z,28.10
2018-06-07T12:12:39.752Z,27.90
2018-06-07T12:15:08.128Z,28.10
2018-06-07T12:17:36.530Z,28.20
2018-06-07T12:20:04.913Z,28.40
2018-06-07T12:22:33.298Z,28.40
2018-06-07T12:25:01.679Z,28.40
2018-06-07T12:27:30.092Z,28.60
2018-06-07T12:29:58.472Z,28.60
2018-06-07T12:32:26.850Z,28.60
2018-06-07T12:34:55.202Z,28.60
2018-06-07T12:37:23.601Z,28.60
2018-06-07T12:39:52.035Z,28.30
2018-06-07T12:42:20.372Z,28.30
2018-06-07T12:44:48.741Z,28.20
2018-06-07T12:47:17.168Z,27.90
2018-06-07T12:49:45.536Z,27.70
2018-06-07T12:52:13.907Z,27.60
2018-06-07T12:54:42.304Z,27.50
2018-06-07T12:57:10.645Z,27.60
2018-06-07T12:59:39.050Z,27.70
2018-06-07T13:04:35.494Z,27.70
2018-06-07T13:07:03.858Z,27.80
2018-06-07T13:09:32.231Z,27.80
2018-06-07T13:12:00.622Z,27.60
2018-06-07T13:14:29.037Z,27.70
2018-06-07T13:16:57.417Z,27.60
2018-06-07T13:19:25.817Z,27.60
2018-06-07T13:21:54.200Z,27.70
2018-06-07T13:24:22.593Z,27.70
2018-06-07T13:26:50.958Z,27.70
2018-06-07T13:29:19.363Z,27.40
2018-06-07T13:31:47.711Z,27.60
2018-06-07T13:34:16.105Z,27.70
2018-06-07T13:36:44.459Z,27.80
2018-06-07T13:39:12.849Z,27.90
2018-06-07T13:41:41.218Z,27.90
2018-06-07T13:44:09.597Z,28.00
2018-06-07T13:46:37.963Z,28.00
2018-06-07T13:49:06.347Z,28.10
2018-06-07T13:51:34.755Z,28.10
2018-06-07T13:54:03.134Z,28.10
2018-06-07T13:56:31.531Z,28.00
2018-06-07T13:58:59.891Z,27.90
2018-06-07T14:01:28.296Z,27.90
2018-06-07T14:03:56.665Z,27.90
2018-06-07T14:06:25.093Z,27.90
2018-06-07T14:08:53.468Z,28.00
2018-06-07T14:11:21.857Z,28.00
2018-06-07T14:13:50.215Z,28.00
2018-06-07T14:16:18.568Z,28.00
2018-06-07T14:18:46.909Z,28.10
2018-06-07T14:21:15.262Z,28.10
2018-06-07T14:26:11.686Z,28.10
2018-06-07T14:28:40.010Z,28.10
2018-06-07T14:31:08.390Z,28.10
2018-06-07T14:33:36.721Z,28.20
2018-06-07T14:36:05.122Z,28.20
2018-06-07T14:38:33.449Z,28.10
2018-06-07T14:41:01.816Z,28.10
2018-06-07T14:43:30.154Z,28.10
2018-06-07T14:45:58.498Z,28.10
2018-06-07T14:48:26.877Z,28.10
2018-06-07T14:50:55.211Z,28.10
2018-06-07T14:53:23.609Z,28.10
2018-06-07T14:55:51.942Z,28.10
2018-06-07T14:58:20.318Z,28.00
2018-06-07T15:00:48.662Z,28.00
2018-06-07T15:03:17.026Z,27.90
2018-06-07T15:05:45.356Z,27.90
2018-06-07T15:08:13.717Z,27.90
2018-06-07T15:10:42.057Z,27.90
2018-06-07T15:13:10.430Z,27.90
2018-06-07T15:15:38.792Z,27.80
2018-06-07T15:18:07.199Z,27.70
2018-06-07T15:20:35.555Z,27.70
2018-06-07T15:23:03.966Z,27.70
2018-06-07T15:25:32.355Z,27.70
2018-06-07T15:28:00.768Z,27.70
2018-06-07T15:30:29.150Z,27.70
2018-06-07T15:32:57.537Z,27.70
2018-06-07T15:35:25.893Z,27.70
2018-06-07T15:37:54.299Z,27.70
2018-06-07T15:40:22.655Z,27.60
2018-06-07T15:42:51.046Z,27.60
2018-06-07T15:45:19.415Z,27.60
2018-06-07T15:47:47.776Z,27.60
2018-06-07T15:50:16.154Z,27.60
2018-06-07T15:52:44.526Z,27.60
2018-06-07T15:55:12.913Z,27.70
2018-06-07T15:57:41.265Z,27.60
2018-06-07T16:00:09.689Z,27.70
2018-06-07T16:02:38.045Z,27.70
2018-06-07T16:05:06.706Z,27.80
2018-06-07T16:07:35.086Z,27.80
2018-06-07T16:10:03.537Z,27.90
2018-06-07T16:12:31.902Z,27.90
2018-06-07T16:15:00.341Z,27.90
2018-06-07T16:17:28.697Z,27.90
2018-06-07T16:19:57.086Z,27.90
2018-06-07T16:22:25.435Z,27.80
2018-06-07T16:24:53.816Z,27.80
2018-06-07T16:27:22.182Z,27.80
2018-06-07T16:29:50.695Z,27.80
2018-06-07T16:32:31.622Z,27.80
2018-06-07T16:35:06.934Z,27.90
2018-06-07T16:37:35.947Z,27.90
2018-06-07T16:40:07.530Z,27.90
2018-06-07T16:42:36.398Z,27.90
2018-06-07T16:45:05.102Z,27.90
2018-06-07T16:47:33.458Z,27.90
2018-06-07T16:50:01.866Z,27.90
2018-06-07T16:52:30.224Z,27.90
2018-06-07T16:54:58.589Z,27.80
2018-06-07T16:57:26.978Z,27.80
2018-06-07T16:59:55.344Z,27.80
2018-06-07T17:02:23.737Z,27.80
2018-06-07T17:04:52.090Z,27.80
2018-06-07T17:07:20.502Z,27.70
2018-06-07T17:09:48.878Z,27.80
2018-06-07T17:12:17.266Z,27.70
2018-06-07T17:14:45.645Z,27.60
2018-06-07T17:17:14.042Z,27.50
2018-06-07T17:19:42.402Z,27.50
2018-06-07T17:22:10.769Z,27.40
2018-06-07T17:24:39.154Z,27.00
2018-06-07T17:27:07.583Z,26.60
2018-06-07T17:29:35.941Z,26.60
2018-06-07T17:32:04.365Z,26.50
2018-06-07T17:34:32.766Z,26.10
2018-06-07T17:37:01.170Z,25.90
2018-06-07T17:39:29.564Z,25.80
2018-06-07T17:41:58.016Z,25.80
2018-06-07T17:44:26.443Z,25.50
2018-06-07T17:46:54.841Z,25.50
2018-06-07T17:49:23.185Z,25.30
2018-06-07T17:51:51.615Z,25.40
2018-06-07T17:54:19.951Z,25.40
2018-06-07T17:56:48.297Z,25.50
2018-06-07T17:59:16.725Z,25.60
2018-06-07T18:01:45.105Z,25.50
2018-06-07T18:04:13.490Z,25.40
2018-06-07T18:06:41.829Z,25.50
2018-06-07T18:09:10.263Z,25.60
2018-06-07T18:11:38.621Z,25.60
2018-06-07T18:14:07.062Z,25.70
2018-06-07T18:16:35.495Z,25.70
2018-06-07T18:19:03.910Z,25.70
2018-06-07T18:21:32.416Z,25.70
2018-06-07T18:24:01.067Z,25.70
2018-06-07T18:26:29.557Z,25.60
2018-06-07T18:28:58.030Z,25.40
2018-06-07T18:31:26.711Z,25.30
2018-06-07T18:33:55.600Z,25.30
2018-06-07T18:36:24.070Z,25.40
2018-06-07T18:38:52.465Z,25.50
2018-06-07T18:41:20.966Z,25.50
2018-06-07T18:43:49.658Z,25.50
2018-06-07T18:46:17.989Z,25.50
2018-06-07T18:48:46.441Z,25.50
2018-06-07T18:51:14.772Z,25.70
2018-06-07T18:53:43.131Z,25.60
2018-06-07T18:56:11.499Z,25.70
2018-06-07T18:58:39.838Z,25.60
2018-06-07T19:01:08.200Z,25.40
2018-06-07T19:03:36.545Z,25.30
2018-06-07T19:06:05.055Z,25.10
2018-06-07T19:08:39.061Z,25.00
2018-06-07T19:11:07.622Z,25.20
2018-06-07T19:13:41.278Z,25.40
2018-06-07T19:16:09.693Z,25.40
2018-06-07T19:18:38.038Z,25.40
2018-06-07T19:21:06.562Z,25.40
2018-06-07T19:23:34.916Z,25.10
2018-06-07T19:26:09.758Z,24.80
2018-06-07T19:28:38.093Z,24.60
2018-06-07T19:31:06.457Z,24.50
2018-06-07T19:33:40.329Z,24.50
2018-06-07T19:36:08.749Z,24.40
2018-06-07T19:38:41.382Z,24.50
2018-06-07T19:41:15.209Z,24.40
2018-06-07T19:43:43.606Z,24.20
2018-06-07T19:46:11.990Z,24.30
2018-06-07T19:48:40.403Z,24.20
2018-06-07T19:51:08.766Z,24.30
2018-06-07T19:53:37.152Z,24.30
2018-06-07T19:56:05.540Z,24.30
2018-06-07T19:58:33.933Z,24.20
2018-06-07T20:01:02.294Z,24.20
2018-06-07T20:05:58.749Z,24.20
2018-06-07T20:08:27.098Z,24.20
2018-06-07T20:10:55.489Z,24.50
2018-06-07T20:13:23.829Z,24.60
2018-06-07T20:15:52.257Z,24.70
2018-06-07T20:18:20.613Z,24.70
2018-06-07T20:20:49.013Z,24.50
2018-06-07T20:23:17.365Z,24.30
2018-06-07T20:25:45.958Z,24.30
2018-06-07T20:28:14.331Z,24.30
2018-06-07T20:30:42.729Z,24.20
2018-06-07T20:33:11.089Z,24.20
2018-06-07T20:35:39.529Z,24.20
2018-06-07T20:38:07.890Z,24.10
2018-06-07T20:40:36.281Z,24.00
2018-06-07T20:43:04.677Z,24.30
2018-06-07T20:45:33.049Z,24.60
2018-06-07T20:48:01.401Z,24.70
2018-06-07T20:50:29.792Z,24.40
2018-06-07T20:52:58.151Z,24.60
2018-06-07T20:55:26.506Z,24.60
2018-06-07T20:57:54.888Z,24.50
2018-06-07T21:00:23.235Z,24.30
2018-06-07T21:02:51.634Z,24.20
2018-06-07T21:05:19.982Z,24.00
2018-06-07T21:07:48.434Z,23.90
2018-06-07T21:10:16.786Z,23.90
2018-06-07T21:12:45.181Z,23.90
2018-06-07T21:15:13.526Z,24.00
2018-06-07T21:17:41.885Z,24.00
2018-06-07T21:20:10.214Z,24.00
2018-06-07T21:22:38.599Z,24.00
2018-06-07T21:25:06.922Z,24.00
2018-06-07T21:27:35.306Z,23.90
2018-06-07T21:30:03.658Z,23.90
2018-06-07T21:32:37.690Z,23.80
2018-06-07T21:35:06.051Z,23.80
2018-06-07T21:37:34.465Z,24.00
2018-06-07T21:40:02.808Z,24.10
2018-06-07T21:42:31.170Z,24.30
2018-06-07T21:44:59.508Z,24.30
2018-06-07T21:47:27.870Z,24.30
2018-06-07T21:49:56.199Z,24.20
2018-06-07T21:52:24.565Z,24.00
2018-06-07T21:54:52.890Z,23.90
2018-06-07T21:57:21.251Z,23.90
2018-06-07T21:59:49.593Z,23.90
2018-06-07T22:02:17.937Z,23.80
2018-06-07T22:04:46.317Z,24.00
2018-06-07T22:07:14.629Z,24.00
2018-06-07T22:09:43.001Z,23.80
2018-06-07T22:12:11.326Z,23.70
2018-06-07T22:17:07.827Z,23.80
2018-06-07T22:19:36.213Z,24.10
2018-06-07T22:22:04.609Z,24.10
2018-06-07T22:24:32.992Z,24.10
2018-06-07T22:27:01.338Z,24.10
2018-06-07T22:29:29.717Z,24.20
2018-06-07T22:31:58.074Z,24.10
2018-06-07T22:34:26.469Z,24.00
2018-06-07T22:36:54.851Z,23.90
2018-06-07T22:39:23.268Z,23.80
2018-06-07T22:41:51.578Z,23.90
2018-06-07T22:44:19.973Z,24.10
2018-06-07T22:46:48.327Z,24.20
2018-06-07T22:49:16.702Z,24.20
2018-06-07T22:51:45.085Z,24.10
2018-06-07T22:54:13.485Z,23.80
2018-06-07T22:56:41.886Z,23.80
2018-06-07T22:59:10.258Z,23.70
2018-06-07T23:04:06.730Z,23.40
2018-06-07T23:09:03.385Z,23.30
2018-06-07T23:11:31.774Z,23.20
2018-06-07T23:14:00.126Z,23.30
2018-06-07T23:16:28.530Z,23.30
2018-06-07T23:18:56.910Z,23.20
2018-06-07T23:21:25.274Z,23.30
2018-06-07T23:23:53.609Z,23.30
2018-06-07T23:26:21.976Z,23.40
2018-06-07T23:28:50.277Z,23.30
2018-06-07T23:31:18.636Z,23.20
2018-06-07T23:33:46.955Z,23.20
2018-06-07T23:36:15.362Z,23.10
2018-06-07T23:38:43.689Z,23.20
2018-06-07T23:41:12.058Z,23.10
2018-06-07T23:43:40.397Z,22.90
2018-06-07T23:46:08.763Z,23.00
2018-06-07T23:48:37.093Z,23.10
2018-06-07T23:51:05.461Z,23.20
2018-06-07T23:53:33.798Z,23.40
2018-06-07T23:56:02.182Z,23.40
2018-06-07T23:58:30.518Z,23.40
